Time;durP1;ratioP1;P1;durP2;ratioP2;P2;SDS_P1;SDS_P2;PMS_P1;PMS_P2;Temp;Humidity;BMP_temperature;BMP_pressure;BME280_temperature;BME280_humidity;BME280_pressure;Samples;Min_cycle;Max_cycle;Signal;HPM_P1;HPM_P2
2022/09/18 00:02:23;;;;;;;;;;;;;;;-142.75;100.00;77365.63;5013674;28;19913;-68
2022/09/18 00:04:48;;;;;;;;;;;;;;;-142.75;100.00;77367.59;5013241;28;19917;-69
2022/09/18 00:07:14;;;;;;;;;;;;;;;-142.75;100.00;77365.63;5014049;28;19914;-70
2022/09/18 00:09:39;;;;;;;;;;;;;;;-142.75;100.00;77357.75;5018792;28;19924;-69
2022/09/18 00:12:04;;;;;;;;;;;;;;;-142.75;100.00;77359.72;5018604;28;19921;-69
2022/09/18 00:14:29;;;;;;;;;;;;;;;-142.75;100.00;77357.75;5013621;28;19991;-69
2022/09/18 00:16:55;;;;;;;;;;;;;;;-142.75;100.00;77365.63;5013131;28;19918;-70
2022/09/18 00:19:20;;;;;;;;;;;;;;;-142.75;100.00;77353.81;5011986;28;19924;-69
2022/09/18 00:21:47;;;;;;;;;;;;;;;-142.75;100.00;77351.84;5013268;28;19987;-69
2022/09/18 00:24:12;;;;;;;;;;;;;;;-142.75;100.00;77347.91;5013272;28;20303;-69
2022/09/18 00:26:38;;;;;;;;;;;;;;;-142.75;100.00;77351.84;5012924;28;19917;-70
2022/09/18 00:29:03;;;;;;;;;;;;;;;-142.75;100.00;77373.50;5011775;28;19941;-69
2022/09/18 00:31:30;;;;;;;;;;;;;;;-142.75;100.00;77361.69;5013174;28;19920;-69
2022/09/18 00:33:56;;;;;;;;;;;;;;;-142.75;100.00;77365.63;5013129;28;20000;-71
2022/09/18 00:36:21;;;;;;;;;;;;;;;-142.75;100.00;77365.63;5011843;28;19949;-69
2022/09/18 00:38:47;;;;;;;;;;;;;;;-142.75;100.00;77381.38;5012735;28;20344;-69
2022/09/18 00:41:14;;;;;;;;;;;;;;;-142.75;100.00;77363.66;5012966;28;19992;-69
2022/09/18 00:43:39;;;;;;;;;;;;;;;-142.75;100.00;77361.69;5012911;28;19917;-69
2022/09/18 00:46:17;;;;;;;;;;;;;;;-142.75;100.00;77365.63;5012956;28;19924;-69
2022/09/18 00:48:48;;;;;;;;;;;;;;;-142.75;100.00;77365.63;5011412;28;19913;-69
2022/09/18 00:51:14;;;;;;;;;;;;;;;-142.75;100.00;77365.63;5012884;28;19913;-69
2022/09/18 00:53:43;;;;;;;;;;;;;;;-142.75;100.00;77355.78;5012821;28;19913;-69
2022/09/18 00:56:10;;;;;;;;;;;;;;;-142.75;100.00;77361.69;5011435;28;20379;-69
2022/09/18 00:58:36;;;;;;;;;;;;;;;-142.75;100.00;77365.63;5010841;28;19920;-69
2022/09/18 01:01:01;;;;;;;;;;;;;;;-142.75;100.00;77369.56;5011385;28;19917;-70
2022/09/18 01:03:28;;;;;;;;;;;;;;;-142.75;100.00;77395.16;5011487;28;20402;-69
2022/09/18 01:06:22;;;;;;;;;;;;;;;-142.75;100.00;77397.13;5012703;28;20376;-69
2022/09/18 01:08:59;;;;;;;;;;;;;;;-142.75;100.00;77393.19;4992822;28;20013;-70
2022/09/18 01:11:25;;;;;;;;;;;;;;;-142.75;100.00;77389.25;5011321;28;20434;-70
2022/09/18 01:14:19;;;;;;;;;;;;;;;-142.75;100.00;77405.00;5012606;28;19914;-70
2022/09/18 01:16:49;;;;;;;;;;;;;;;-142.75;100.00;77397.13;5012187;28;19924;-70
2022/09/18 01:19:30;;;;;;;;;;;;;;;-142.75;100.00;77391.22;5011141;28;19917;-69
2022/09/18 01:22:06;;;;;;;;;;;;;;;-142.75;100.00;77393.19;5012415;28;20402;-69
2022/09/18 01:24:43;;;;;;;;;;;;;;;-142.75;100.00;77385.31;5012481;28;19913;-70
2022/09/18 01:27:16;;;;;;;;;;;;;;;-142.75;100.00;77383.34;5012115;28;19987;-69
2022/09/18 01:29:46;;;;;;;;;;;;;;;-142.75;100.00;77373.50;5012509;28;19925;-70
2022/09/18 01:32:11;;;;;;;;;;;;;;;-142.75;100.00;77373.50;5012402;28;19920;-70
2022/09/18 01:34:55;;;;;;;;;;;;;;;-142.75;100.00;77361.69;5012379;28;19914;-70
2022/09/18 01:37:34;;;;;;;;;;;;;;;-142.75;100.00;77347.91;5011979;28;19913;-70
2022/09/18 01:40:11;;;;;;;;;;;;;;;-142.75;100.00;77334.13;5012331;28;20076;-70
2022/09/18 01:42:38;;;;;;;;;;;;;;;-142.75;100.00;77326.25;5012309;28;19921;-70
2022/09/18 01:45:06;;;;;;;;;;;;;;;-142.75;100.00;77326.25;5011078;28;20345;-70
2022/09/18 01:47:34;;;;;;;;;;;;;;;-142.75;100.00;77322.31;5010623;28;20295;-70
2022/09/18 01:50:01;;;;;;;;;;;;;;;-142.75;100.00;77334.13;5010949;28;19920;-70
2022/09/18 01:52:29;;;;;;;;;;;;;;;-142.75;100.00;77338.06;5010815;28;19913;-68
2022/09/18 01:54:57;;;;;;;;;;;;;;;-142.75;100.00;77328.22;5012246;28;20032;-70
2022/09/18 01:57:27;;;;;;;;;;;;;;;-142.75;100.00;77326.25;5011804;28;19921;-70
2022/09/18 01:59:58;;;;;;;;;;;;;;;-142.75;100.00;77332.16;5012101;28;19918;-70
2022/09/18 02:02:41;;;;;;;;;;;;;;;-142.75;100.00;77330.19;5012186;28;19913;-70
2022/09/18 02:05:08;;;;;;;;;;;;;;;-142.75;100.00;77330.19;5010880;28;19913;-70
2022/09/18 02:07:49;;;;;;;;;;;;;;;-142.75;100.00;77320.34;5010324;28;19914;-70
2022/09/18 02:10:15;;;;;;;;;;;;;;;-142.75;100.00;77310.50;5014733;28;19913;-71
2022/09/18 02:12:42;;;;;;;;;;;;;;;-142.75;100.00;77312.47;5015691;28;19984;-70
2022/09/18 02:15:12;;;;;;;;;;;;;;;-142.75;100.00;77318.38;5015691;28;19914;-70
2022/09/18 02:17:40;;;;;;;;;;;;;;;-142.75;100.00;77310.50;5015144;28;19941;-70
2022/09/18 02:20:09;;;;;;;;;;;;;;;-142.75;100.00;77294.75;5014293;28;19925;-71
2022/09/18 02:22:36;;;;;;;;;;;;;;;-142.75;100.00;77296.72;5015534;28;19952;-70
2022/09/18 02:25:04;;;;;;;;;;;;;;;-142.75;100.00;77298.69;5015545;28;20537;-70
2022/09/18 02:27:31;;;;;;;;;;;;;;;-142.75;100.00;77302.63;5014993;28;19914;-69
2022/09/18 02:29:57;;;;;;;;;;;;;;;-142.75;100.00;77314.44;5015401;28;19913;-69
2022/09/18 02:32:22;;;;;;;;;;;;;;;-142.75;100.00;77310.50;5015429;28;20276;-70
2022/09/18 02:34:47;;;;;;;;;;;;;;;-142.75;100.00;77306.56;5015349;28;19913;-69
2022/09/18 02:37:13;;;;;;;;;;;;;;;-142.75;100.00;77310.50;5014984;28;20363;-69
2022/09/18 02:39:47;;;;;;;;;;;;;;;-142.75;100.00;77306.56;5013927;28;19913;-69
2022/09/18 02:42:21;;;;;;;;;;;;;;;-142.75;100.00;77310.50;5015166;28;19932;-70
2022/09/18 02:44:57;;;;;;;;;;;;;;;-142.75;100.00;77308.53;5014208;28;20298;-71
2022/09/18 02:47:23;;;;;;;;;;;;;;;-142.75;100.00;77302.63;5013598;28;20017;-70
2022/09/18 02:50:03;;;;;;;;;;;;;;;-142.75;100.00;77310.50;5015047;28;20374;-69
2022/09/18 02:52:32;;;;;;;;;;;;;;;-142.75;100.00;77310.50;5013770;28;19940;-70
2022/09/18 02:55:09;;;;;;;;;;;;;;;-142.75;100.00;77304.59;5015030;28;19913;-70
2022/09/18 02:57:39;;;;;;;;;;;;;;;-142.75;100.00;77300.66;5014610;28;19921;-70
2022/09/18 03:00:05;;;;;;;;;;;;;;;-142.75;100.00;77302.63;5012668;28;20068;-70
2022/09/18 03:02:31;;;;;;;;;;;;;;;-142.75;100.00;77294.75;5032337;28;19940;-69
2022/09/18 03:04:56;;;;;;;;;;;;;;;-142.75;100.00;77292.78;5034508;28;19943;-69
2022/09/18 03:07:21;;;;;;;;;;;;;;;-142.75;100.00;77298.69;5033886;28;20307;-70
2022/09/18 03:09:46;;;;;;;;;;;;;;;-142.75;100.00;77308.53;5034432;28;19958;-70
2022/09/18 03:12:11;;;;;;;;;;;;;;;-142.75;100.00;77312.47;5033094;28;19952;-70
2022/09/18 03:14:37;;;;;;;;;;;;;;;-142.75;100.00;77304.59;5034342;28;19923;-70
2022/09/18 03:17:02;;;;;;;;;;;;;;;-142.75;100.00;77288.84;5034022;28;19920;-69
2022/09/18 03:19:27;;;;;;;;;;;;;;;-142.75;100.00;77290.81;5032570;28;20298;-70
2022/09/18 03:21:52;;;;;;;;;;;;;;;-142.75;100.00;77284.91;5033855;28;20296;-69
2022/09/18 03:24:18;;;;;;;;;;;;;;;-142.75;100.00;77275.06;5034231;28;19913;-69
2022/09/18 03:26:44;;;;;;;;;;;;;;;-142.75;100.00;77284.91;5033756;28;19933;-71
2022/09/18 03:29:09;;;;;;;;;;;;;;;-142.75;100.00;77282.94;5033981;28;19940;-70
2022/09/18 03:31:34;;;;;;;;;;;;;;;-142.75;100.00;77279.00;5032542;28;19969;-70
2022/09/18 03:34:00;;;;;;;;;;;;;;;-142.75;100.00;77280.97;5034035;28;19913;-70
2022/09/18 03:36:25;;;;;;;;;;;;;;;-142.75;100.00;77284.91;5032487;28;20371;-70
2022/09/18 03:38:50;;;;;;;;;;;;;;;-142.75;100.00;77277.03;5031979;28;19913;-70
2022/09/18 03:41:15;;;;;;;;;;;;;;;-142.75;100.00;77294.75;5031169;28;19917;-70
2022/09/18 03:43:40;;;;;;;;;;;;;;;-142.75;100.00;77292.78;5032558;28;20397;-70
2022/09/18 03:46:06;;;;;;;;;;;;;;;-142.75;100.00;77288.84;5033771;28;19966;-70
2022/09/18 03:48:31;;;;;;;;;;;;;;;-142.75;100.00;77286.88;5033414;28;19920;-69
2022/09/18 03:50:56;;;;;;;;;;;;;;;-142.75;100.00;77282.94;5032284;28;19920;-69
2022/09/18 03:53:21;;;;;;;;;;;;;;;-142.75;100.00;77277.03;5033618;28;20006;-70
2022/09/18 03:55:48;;;;;;;;;;;;;;;-142.75;100.00;77275.06;5033614;28;20405;-70
2022/09/18 03:58:13;;;;;;;;;;;;;;;-142.75;100.00;77277.03;5033294;28;20402;-70
2022/09/18 04:00:38;;;;;;;;;;;;;;;-142.75;100.00;77265.22;5033409;28;19961;-70
2022/09/18 04:03:03;;;;;;;;;;;;;;;-142.75;100.00;77263.25;5032435;28;20011;-70
2022/09/18 04:05:29;;;;;;;;;;;;;;;-142.75;100.00;77269.16;5033485;28;19913;-70
2022/09/18 04:07:54;;;;;;;;;;;;;;;-142.75;100.00;77275.06;5032937;28;19939;-70
2022/09/18 04:10:20;;;;;;;;;;;;;;;-142.75;100.00;77290.81;5033334;28;19917;-70
2022/09/18 04:12:46;;;;;;;;;;;;;;;-142.75;100.00;77279.00;5033303;28;19917;-69
2022/09/18 04:15:11;;;;;;;;;;;;;;;-142.75;100.00;77284.91;5032019;28;20008;-70
2022/09/18 04:17:37;;;;;;;;;;;;;;;-142.75;100.00;77275.06;5033082;28;19968;-69
2022/09/18 04:20:02;;;;;;;;;;;;;;;-142.75;100.00;77273.09;5031750;28;20011;-70
2022/09/18 04:22:28;;;;;;;;;;;;;;;-142.75;100.00;77277.03;5033138;28;20374;-70
2022/09/18 04:24:54;;;;;;;;;;;;;;;-142.75;100.00;77267.19;5033083;28;19913;-70
2022/09/18 04:27:19;;;;;;;;;;;;;;;-142.75;100.00;77277.03;5031451;28;19948;-69
2022/09/18 04:29:45;;;;;;;;;;;;;;;-142.75;100.00;77280.97;5032961;28;19960;-70
2022/09/18 04:32:10;;;;;;;;;;;;;;;-142.75;100.00;77280.97;5032283;28;19966;-70
2022/09/18 04:34:35;;;;;;;;;;;;;;;-142.75;100.00;77286.88;5032797;28;20272;-70
2022/09/18 04:37:00;;;;;;;;;;;;;;;-142.75;100.00;77279.00;5031289;28;19913;-70
2022/09/18 04:39:28;;;;;;;;;;;;;;;-142.75;100.00;77275.06;5032915;28;19913;-69
2022/09/18 04:41:54;;;;;;;;;;;;;;;-142.75;100.00;77275.06;5031462;28;19923;-70
2022/09/18 04:44:20;;;;;;;;;;;;;;;-142.75;100.00;77271.13;5032746;28;20410;-70
2022/09/18 04:46:45;;;;;;;;;;;;;;;-142.75;100.00;77275.06;5032476;28;19914;-70
2022/09/18 04:49:10;;;;;;;;;;;;;;;-142.75;100.00;77265.22;5031328;28;19913;-70
2022/09/18 04:51:35;;;;;;;;;;;;;;;-142.75;100.00;77259.31;5032516;28;19963;-70
2022/09/18 04:54:00;;;;;;;;;;;;;;;-142.75;100.00;77255.38;5032645;28;19913;-70
2022/09/18 04:56:26;;;;;;;;;;;;;;;-142.75;100.00;77255.38;5032438;28;19940;-70
2022/09/18 04:58:51;;;;;;;;;;;;;;;-142.75;100.00;77275.06;5031060;28;19966;-70
2022/09/18 05:01:17;;;;;;;;;;;;;;;-142.75;100.00;77275.06;5032444;28;19963;-70
2022/09/18 05:03:42;;;;;;;;;;;;;;;-142.75;100.00;77265.22;5032383;28;19913;-70
2022/09/18 05:06:07;;;;;;;;;;;;;;;-142.75;100.00;77275.06;5032303;28;19924;-70
2022/09/18 05:08:33;;;;;;;;;;;;;;;-142.75;100.00;77261.28;5032016;28;19966;-70
2022/09/18 05:10:59;;;;;;;;;;;;;;;-142.75;100.00;77259.31;5032504;28;19936;-70
2022/09/18 05:13:24;;;;;;;;;;;;;;;-142.75;100.00;77253.41;5032389;28;19959;-70
2022/09/18 05:15:53;;;;;;;;;;;;;;;-142.75;100.00;77263.25;5032244;28;19923;-69
2022/09/18 05:18:18;;;;;;;;;;;;;;;-142.75;100.00;77259.31;5031730;28;20302;-70
2022/09/18 05:20:43;;;;;;;;;;;;;;;-142.75;100.00;77263.25;5030810;28;19923;-70
2022/09/18 05:23:08;;;;;;;;;;;;;;;-142.75;100.00;77259.31;5032393;28;19920;-70
2022/09/18 05:25:33;;;;;;;;;;;;;;;-142.75;100.00;77263.25;5032236;28;19913;-70
2022/09/18 05:28:00;;;;;;;;;;;;;;;-142.75;100.00;77267.19;5053103;22;19913;-67
2022/09/18 05:30:26;;;;;;;;;;;;;;;-142.75;100.00;77251.44;5009418;28;20016;-70
2022/09/18 05:32:55;;;;;;;;;;;;;;;-142.75;100.00;77259.31;5011618;28;20012;-70
2022/09/18 05:35:21;;;;;;;;;;;;;;;-142.75;100.00;77265.22;5012390;28;19918;-70
2022/09/18 05:37:48;;;;;;;;;;;;;;;-142.75;100.00;77265.22;5011088;28;19920;-70
2022/09/18 05:40:13;;;;;;;;;;;;;;;-142.75;100.00;77269.16;5012454;28;19965;-70
2022/09/18 05:42:43;;;;;;;;;;;;;;;-142.75;100.00;77267.19;5011459;28;19968;-70
2022/09/18 05:45:08;;;;;;;;;;;;;;;-142.75;100.00;77263.25;5016693;28;20008;-70
2022/09/18 05:47:35;;;;;;;;;;;;;;;-142.75;100.00;77255.38;5016367;28;20430;-70
2022/09/18 05:50:00;;;;;;;;;;;;;;;-142.75;100.00;77253.41;5016569;28;19913;-70
2022/09/18 05:52:25;;;;;;;;;;;;;;;-142.75;100.00;77249.47;5016505;28;19960;-70
2022/09/18 05:54:50;;;;;;;;;;;;;;;-142.75;100.00;77243.56;5015341;28;19971;-70
2022/09/18 05:57:16;;;;;;;;;;;;;;;-142.75;100.00;77235.69;5015824;28;19921;-70
2022/09/18 05:59:41;;;;;;;;;;;;;;;-142.75;100.00;77229.78;5014778;28;19971;-70
2022/09/18 06:02:08;;;;;;;;;;;;;;;-142.75;100.00;77225.84;5015970;28;19925;-70
2022/09/18 06:04:33;;;;;;;;;;;;;;;-142.75;100.00;77210.09;5014702;28;19957;-70
2022/09/18 06:07:00;;;;;;;;;;;;;;;-142.75;100.00;77212.06;5015771;28;19960;-70
2022/09/18 06:09:26;;;;;;;;;;;;;;;-142.75;100.00;77219.94;5015915;28;20025;-70
2022/09/18 06:11:51;;;;;;;;;;;;;;;-142.75;100.00;77212.06;5014663;28;19960;-70
2022/09/18 06:14:17;;;;;;;;;;;;;;;-142.75;100.00;77206.16;5016210;28;19959;-70
2022/09/18 06:16:42;;;;;;;;;;;;;;;-142.75;100.00;77204.19;5015899;28;20387;-70
2022/09/18 06:19:07;;;;;;;;;;;;;;;-142.75;100.00;77210.09;5015984;28;19982;-70
2022/09/18 06:21:32;;;;;;;;;;;;;;;-142.75;100.00;77216.00;5014636;28;19924;-70
2022/09/18 06:23:57;;;;;;;;;;;;;;;-142.75;100.00;77231.75;5015904;28;19914;-70
2022/09/18 06:26:23;;;;;;;;;;;;;;;-142.75;100.00;77216.00;5015789;28;20413;-70
2022/09/18 06:28:50;;;;;;;;;;;;;;;-142.75;100.00;77216.00;5014308;28;19924;-70
2022/09/18 06:31:15;;;;;;;;;;;;;;;-142.75;100.00;77198.28;5015844;28;20383;-70
2022/09/18 06:33:40;;;;;;;;;;;;;;;-142.75;100.00;77188.44;5012672;28;19924;-70
2022/09/18 06:36:09;;;;;;;;;;;;;;;-142.75;100.00;77186.47;5013988;28;19918;-70
2022/09/18 06:38:34;;;;;;;;;;;;;;;-142.75;100.00;77180.56;5015371;28;19913;-70
2022/09/18 06:41:00;;;;;;;;;;;;;;;-142.75;100.00;77174.66;5014504;28;20398;-70
2022/09/18 06:43:25;;;;;;;;;;;;;;;-142.75;100.00;77160.88;5015990;28;19913;-70
2022/09/18 06:45:54;;;;;;;;;;;;;;;-142.75;100.00;77151.03;5015688;28;19913;-70
2022/09/18 06:48:21;;;;;;;;;;;;;;;-142.75;100.00;77153.00;5015343;28;19913;-70
2022/09/18 06:50:49;;;;;;;;;;;;;;;-142.75;100.00;77137.25;5015653;28;20331;-70
2022/09/18 06:53:15;;;;;;;;;;;;;;;-142.75;100.00;77113.63;5014267;28;19971;-70
2022/09/18 06:55:40;;;;;;;;;;;;;;;-142.75;100.00;77107.72;5013336;28;20641;-70
2022/09/18 06:58:05;;;;;;;;;;;;;;;-142.75;100.00;77121.50;5015002;28;19914;-70
2022/09/18 07:00:30;;;;;;;;;;;;;;;-142.75;100.00;77113.63;5015449;28;20276;-70
2022/09/18 07:02:56;;;;;;;;;;;;;;;-142.75;100.00;77121.50;5015338;28;20617;-70
2022/09/18 07:05:22;;;;;;;;;;;;;;;-142.75;100.00;77129.38;5015602;28;19918;-70
2022/09/18 07:07:47;;;;;;;;;;;;;;;-142.75;100.00;77139.22;5014893;28;19914;-70
2022/09/18 07:10:13;;;;;;;;;;;;;;;-142.75;100.00;77121.50;5014715;28;20406;-70
2022/09/18 07:12:38;;;;;;;;;;;;;;;-142.75;100.00;77133.31;5014947;28;19920;-70
2022/09/18 07:15:03;;;;;;;;;;;;;;;-142.75;100.00;77135.28;5015135;28;20446;-70
2022/09/18 07:17:28;;;;;;;;;;;;;;;-142.75;100.00;77131.34;5014933;28;19914;-69
2022/09/18 07:19:53;;;;;;;;;;;;;;;-142.75;100.00;77125.44;5015170;28;19920;-70
2022/09/18 07:22:19;;;;;;;;;;;;;;;-142.75;100.00;77115.59;5015213;28;19972;-70
2022/09/18 07:24:44;;;;;;;;;;;;;;;-142.75;100.00;77113.63;5014932;28;19997;-70
2022/09/18 07:27:09;;;;;;;;;;;;;;;-142.75;100.00;77103.78;5014656;28;20298;-70
2022/09/18 07:29:34;;;;;;;;;;;;;;;-142.75;100.00;77093.94;5013562;28;19972;-70
2022/09/18 07:31:59;;;;;;;;;;;;;;;-142.75;100.00;77091.97;5013778;28;19999;-70
2022/09/18 07:34:25;;;;;;;;;;;;;;;-142.75;100.00;77078.19;5013630;28;19933;-69
2022/09/18 07:36:50;;;;;;;;;;;;;;;-142.75;100.00;77072.28;5014616;28;19913;-70
2022/09/18 07:39:15;;;;;;;;;;;;;;;-142.75;100.00;77068.34;5014362;28;19913;-70
2022/09/18 07:41:40;;;;;;;;;;;;;;;-142.75;100.00;77074.25;5014314;28;20452;-70
2022/09/18 07:44:05;;;;;;;;;;;;;;;-142.75;100.00;77072.28;5014362;28;19963;-70
2022/09/18 07:46:31;;;;;;;;;;;;;;;-142.75;100.00;77072.28;5014502;28;20410;-70
2022/09/18 07:48:56;;;;;;;;;;;;;;;-142.75;100.00;77078.19;5014073;28;19920;-70
2022/09/18 07:51:21;;;;;;;;;;;;;;;-142.75;100.00;77080.16;5014556;28;20008;-70
2022/09/18 07:53:47;;;;;;;;;;;;;;;-142.75;100.00;77107.72;5014002;28;19914;-70
2022/09/18 07:56:13;;;;;;;;;;;;;;;-142.75;100.00;77105.75;5014147;28;19918;-70
2022/09/18 07:58:38;;;;;;;;;;;;;;;-142.75;100.00;77101.81;5013841;28;20453;-70
2022/09/18 08:01:04;;;;;;;;;;;;;;;-142.75;100.00;77117.56;5013802;28;19917;-70
2022/09/18 08:03:29;;;;;;;;;;;;;;;-142.75;100.00;77117.56;5013964;28;19955;-70
2022/09/18 08:05:55;;;;;;;;;;;;;;;-142.75;100.00;77117.56;5013732;28;20367;-70
2022/09/18 08:08:20;;;;;;;;;;;;;;;-142.75;100.00;77133.31;5012950;28;20017;-70
2022/09/18 08:10:46;;;;;;;;;;;;;;;-142.75;100.00;77178.59;5013812;28;19936;-70
2022/09/18 08:13:11;;;;;;;;;;;;;;;-142.75;100.00;77190.41;5014254;28;19957;-71
2022/09/18 08:15:37;;;;;;;;;;;;;;;-142.75;100.00;77216.00;5014284;28;19949;-70
2022/09/18 08:18:03;;;;;;;;;;;;;;;-142.75;100.00;77225.84;5014121;28;20337;-72
2022/09/18 08:20:28;;;;;;;;;;;;;;;-142.75;100.00;77233.72;5014469;28;20012;-71
2022/09/18 08:22:54;;;;;;;;;;;;;;;-142.75;100.00;77227.81;5014779;28;19914;-71
2022/09/18 08:25:22;;;;;;;;;;;;;;;-142.75;100.00;77235.69;5014132;28;20291;-71
2022/09/18 08:27:47;;;;;;;;;;;;;;;-142.75;100.00;77239.63;5013361;28;19920;-70
2022/09/18 08:30:14;;;;;;;;;;;;;;;-142.75;100.00;77231.75;5013577;28;19917;-70
2022/09/18 08:32:39;;;;;;;;;;;;;;;-142.75;100.00;77225.84;5013704;28;19920;-71
2022/09/18 08:35:05;;;;;;;;;;;;;;;-142.75;100.00;77221.91;5012331;28;20007;-70
2022/09/18 08:37:32;;;;;;;;;;;;;;;-142.75;100.00;77208.13;5013157;28;19920;-71
2022/09/18 08:39:57;;;;;;;;;;;;;;;-142.75;100.00;77194.34;5013332;28;20389;-71
2022/09/18 08:42:26;;;;;;;;;;;;;;;-142.75;100.00;77170.72;5013210;28;19913;-70
2022/09/18 08:44:54;;;;;;;;;;;;;;;-142.75;100.00;77164.81;5012188;28;19920;-71
2022/09/18 08:47:25;;;;;;;;;;;;;;;-142.75;100.00;77145.13;5012800;28;19913;-70
2022/09/18 08:50:02;;;;;;;;;;;;;;;-142.75;100.00;77139.22;5013009;28;19914;-71
2022/09/18 08:52:31;;;;;;;;;;;;;;;-142.75;100.00;77123.47;5012822;28;19921;-70
2022/09/18 08:54:59;;;;;;;;;;;;;;;-142.75;100.00;77107.72;5013023;28;20374;-70
2022/09/18 08:57:31;;;;;;;;;;;;;;;-142.75;100.00;77097.88;5012577;28;19913;-70
2022/09/18 09:00:01;;;;;;;;;;;;;;;-142.75;100.00;77088.03;5012811;28;20422;-70
2022/09/18 09:02:26;;;;;;;;;;;;;;;-142.75;100.00;77070.31;5013038;28;20344;-70
2022/09/18 09:04:56;;;;;;;;;;;;;;;-142.75;100.00;77058.50;5011954;28;19917;-69
2022/09/18 09:07:42;;;;;;;;;;;;;;;-142.75;100.00;77050.63;5011591;28;20485;-69
2022/09/18 09:10:19;;;;;;;;;;;;;;;-142.75;100.00;77040.78;5012686;28;20007;-69
2022/09/18 09:13:03;;;;;;;;;;;;;;;-142.75;100.00;77042.75;5012692;28;19961;-71
2022/09/18 09:15:33;;;;;;;;;;;;;;;-142.75;100.00;77036.84;5011877;28;19913;-69
2022/09/18 09:18:19;;;;;;;;;;;;;;;-142.75;100.00;77019.13;5012344;28;19914;-70
2022/09/18 09:20:49;;;;;;;;;;;;;;;-142.75;100.00;77005.34;5010537;28;19917;-70
2022/09/18 09:23:21;;;;;;;;;;;;;;;-142.75;100.00;76989.59;5011137;28;19914;-69
2022/09/18 09:26:06;;;;;;;;;;;;;;;-142.75;100.00;76979.75;5012339;28;19929;-70
2022/09/18 09:28:50;;;;;;;;;;;;;;;-142.75;100.00;76965.97;4994633;28;20015;-70
2022/09/18 09:31:16;;;;;;;;;;;;;;;-142.75;100.00;76956.13;5015396;28;20291;-70
2022/09/18 09:33:48;;;;;;;;;;;;;;;-142.75;100.00;76958.09;5010385;28;19924;-72
2022/09/18 09:36:15;;;;;;;;;;;;;;;-142.75;100.00;76950.22;5009564;28;19944;-69
2022/09/18 09:38:44;;;;;;;;;;;;;;;-142.75;100.00;76934.47;5011753;28;20000;-70
2022/09/18 09:41:14;;;;;;;;;;;;;;;-142.75;100.00;76924.63;5012304;28;20019;-70
2022/09/18 09:43:39;;;;;;;;;;;;;;;-142.75;100.00;76918.72;5012444;28;19914;-70
2022/09/18 09:46:10;;;;;;;;;;;;;;;-142.75;100.00;76936.44;5012064;28;20387;-69
2022/09/18 09:48:44;;;;;;;;;;;;;;;-142.75;100.00;76971.88;5011328;28;19917;-69
2022/09/18 09:51:28;;;;;;;;;;;;;;;-142.75;100.00;77007.31;5009809;28;19917;-69
2022/09/18 09:53:54;;;;;;;;;;;;;;;-142.75;100.00;76999.44;5011623;28;19983;-70
2022/09/18 09:56:31;;;;;;;;;;;;;;;-142.75;100.00;77015.19;5011302;28;19913;-69
2022/09/18 09:59:06;;;;;;;;;;;;;;;-142.75;100.00;77028.97;5011012;28;19924;-68
2022/09/18 10:01:39;;;;;;;;;;;;;;;-142.75;100.00;77040.78;5010689;28;19975;-69
2022/09/18 10:04:10;;;;;;;;;;;;;;;-142.75;100.00;77050.63;5009874;28;19936;-69
2022/09/18 10:06:44;;;;;;;;;;;;;;;-142.75;100.00;77066.38;5010867;28;19913;-69
2022/09/18 10:09:18;;;;;;;;;;;;;;;-142.75;100.00;77072.28;5010448;28;19913;-70
2022/09/18 10:11:47;;;;;;;;;;;;;;;-142.75;100.00;77091.97;5010133;28;19962;-69
2022/09/18 10:14:20;;;;;;;;;;;;;;;-142.75;100.00;77090.00;5010540;28;19971;-69
2022/09/18 10:16:47;;;;;;;;;;;;;;;-142.75;100.00;77099.84;5011484;28;19944;-69
2022/09/18 10:19:14;;;;;;;;;;;;;;;-142.75;100.00;77080.16;5011694;28;19917;-70
2022/09/18 10:21:40;;;;;;;;;;;;;;;-142.75;100.00;77082.13;5011597;28;19917;-69
2022/09/18 10:24:08;;;;;;;;;;;;;;;-142.75;100.00;77070.31;5011625;28;19924;-70
2022/09/18 10:26:38;;;;;;;;;;;;;;;-142.75;100.00;77066.38;5008121;28;19917;-68
2022/09/18 10:29:03;;;;;;;;;;;;;;;-142.75;100.00;77054.56;5011786;28;19924;-70
2022/09/18 10:31:47;;;;;;;;;;;;;;;-142.75;100.00;77042.75;5017405;28;19917;-70
2022/09/18 10:34:31;;;;;;;;;;;;;;;-142.75;100.00;77023.06;5013639;28;19992;-70
2022/09/18 10:36:56;;;;;;;;;;;;;;;-142.75;100.00;77011.25;4995687;28;20368;-70
2022/09/18 10:39:32;;;;;;;;;;;;;;;-142.75;100.00;76987.63;4995646;28;19918;-70
2022/09/18 10:41:58;;;;;;;;;;;;;;;-142.75;100.00;76979.75;5012881;28;19918;-71
2022/09/18 10:44:25;;;;;;;;;;;;;;;-142.75;100.00;76979.75;5014712;28;19971;-71
2022/09/18 10:46:54;;;;;;;;;;;;;;;-142.75;100.00;76989.59;5012124;28;19913;-70
2022/09/18 10:49:22;;;;;;;;;;;;;;;-142.75;100.00;76995.50;5014086;28;20290;-71
2022/09/18 10:52:08;;;;;;;;;;;;;;;-142.75;100.00;77013.22;5013842;28;20056;-70
2022/09/18 10:54:34;;;;;;;;;;;;;;;-142.75;100.00;77040.78;5014747;28;19917;-70
2022/09/18 10:57:20;;;;;;;;;;;;;;;-142.75;100.00;77070.31;5014788;28;19921;-71
2022/09/18 10:59:45;;;;;;;;;;;;;;;-142.75;100.00;77078.19;5014753;28;19920;-70
2022/09/18 11:02:16;;;;;;;;;;;;;;;-142.75;100.00;77082.13;5014274;28;19917;-71
2022/09/18 11:04:45;;;;;;;;;;;;;;;-142.75;100.00;77113.63;5014933;28;19924;-70
2022/09/18 11:07:10;;;;;;;;;;;;;;;-142.75;100.00;77125.44;5014498;28;19920;-71
2022/09/18 11:09:39;;;;;;;;;;;;;;;-142.75;100.00;77125.44;5013477;28;19992;-70
2022/09/18 11:12:13;;;;;;;;;;;;;;;-142.75;100.00;77113.63;5012974;28;20012;-71
2022/09/18 11:14:40;;;;;;;;;;;;;;;-142.75;100.00;77121.50;5013340;28;19914;-71
2022/09/18 11:17:12;;;;;;;;;;;;;;;-142.75;100.00;77121.50;5014387;28;19913;-70
2022/09/18 11:19:38;;;;;;;;;;;;;;;-142.75;100.00;77113.63;5014636;28;19953;-71
2022/09/18 11:22:05;;;;;;;;;;;;;;;-142.75;100.00;77133.31;5014562;28;20419;-71
2022/09/18 11:24:33;;;;;;;;;;;;;;;-142.75;100.00;77119.53;5014551;28;19921;-71
2022/09/18 11:27:15;;;;;;;;;;;;;;;-142.75;100.00;77109.69;5014191;28;19937;-69
2022/09/18 11:29:41;;;;;;;;;;;;;;;-142.75;100.00;77105.75;5054685;22;19932;-66
2022/09/18 11:32:15;;;;;;;;;;;;;;;-142.75;100.00;77127.41;5043710;28;19921;-67
2022/09/18 11:34:45;;;;;;;;;;;;;;;-142.75;100.00;77115.59;5050439;28;19923;-69
2022/09/18 11:37:13;;;;;;;;;;;;;;;-142.75;100.00;77113.63;5050580;28;20489;-68
2022/09/18 11:39:41;;;;;;;;;;;;;;;-142.75;100.00;77109.69;5043114;28;19913;-70
2022/09/18 11:42:13;;;;;;;;;;;;;;;-142.75;100.00;77095.91;5033507;28;19971;-68
2022/09/18 11:44:39;;;;;;;;;;;;;;;-142.75;100.00;77095.91;5032585;28;19913;-70
2022/09/18 11:47:10;;;;;;;;;;;;;;;-142.75;100.00;77084.09;5033436;28;19917;-68
2022/09/18 11:49:40;;;;;;;;;;;;;;;-142.75;100.00;77099.84;5033570;28;19917;-68
2022/09/18 11:52:28;;;;;;;;;;;;;;;-142.75;100.00;77074.25;5033703;28;19913;-68
2022/09/18 11:55:02;;;;;;;;;;;;;;;-142.75;100.00;77070.31;5032365;28;19939;-70
2022/09/18 11:57:39;;;;;;;;;;;;;;;-142.75;100.00;77068.34;5033487;28;19958;-68
2022/09/18 12:00:12;;;;;;;;;;;;;;;-142.75;100.00;77060.47;5032138;28;19913;-69
2022/09/18 12:02:56;;;;;;;;;;;;;;;-142.75;100.00;77064.41;5033404;28;19929;-70
2022/09/18 12:05:24;;;;;;;;;;;;;;;-142.75;100.00;77066.38;5033418;28;19921;-68
2022/09/18 12:07:54;;;;;;;;;;;;;;;-142.75;100.00;77070.31;5032984;28;19913;-68
2022/09/18 12:10:38;;;;;;;;;;;;;;;-142.75;100.00;77068.34;5033303;28;19913;-68
2022/09/18 12:13:36;;;;;;;;;;;;;;;-142.75;100.00;77058.50;5032934;28;19913;-68
2022/09/18 12:16:14;;;;;;;;;;;;;;;-142.75;100.00;77058.50;5010239;28;19913;-68
2022/09/18 12:18:46;;;;;;;;;;;;;;;-142.75;100.00;77058.50;5032795;28;19967;-69
2022/09/18 12:21:14;;;;;;;;;;;;;;;-142.75;100.00;77058.50;5033177;28;20367;-69
2022/09/18 12:23:40;;;;;;;;;;;;;;;-142.75;100.00;77042.75;5031793;28;19951;-68
2022/09/18 12:26:05;;;;;;;;;;;;;;;-142.75;100.00;77054.56;5033090;28;19913;-68